createdAt,value
2023-04-30T00:02:04.356Z,4.07
2023-04-30T00:04:30.782Z,12.45
2023-04-30T00:06:57.124Z,15.63
2023-04-30T00:09:23.466Z,10.60
2023-04-30T00:11:49.845Z,7.28
2023-04-30T00:14:16.398Z,14.68
2023-04-30T00:16:43.222Z,18.33
2023-04-30T00:19:09.674Z,19.58
2023-04-30T00:21:36.359Z,13.90
2023-04-30T00:24:02.777Z,13.52
2023-04-30T00:26:31.434Z,14.65
2023-04-30T00:28:57.716Z,11.38
2023-04-30T00:31:24.081Z,11.75
2023-04-30T00:33:50.760Z,10.95
2023-04-30T00:36:17.087Z,13.82
2023-04-30T00:38:43.423Z,11.73
2023-04-30T00:41:09.975Z,12.43
2023-04-30T00:43:36.408Z,14.95
2023-04-30T00:46:03.908Z,6.72
2023-04-30T00:48:30.621Z,12.60
2023-04-30T00:50:56.936Z,11.90
2023-04-30T00:53:23.407Z,9.90
2023-04-30T00:55:49.783Z,11.60
2023-04-30T00:58:16.216Z,15.27
2023-04-30T01:00:47.093Z,11.10
2023-04-30T01:03:16.737Z,12.73
2023-04-30T01:05:43.178Z,16.38
2023-04-30T01:08:10.586Z,8.85
2023-04-30T01:10:42.659Z,9.85
2023-04-30T01:13:13.579Z,5.95
2023-04-30T01:15:46.264Z,12.55
2023-04-30T01:18:16.334Z,13.70
2023-04-30T01:20:48.214Z,8.52
2023-04-30T01:23:25.169Z,11.85
2023-04-30T01:25:57.546Z,13.38
2023-04-30T01:28:24.863Z,13.00
2023-04-30T01:30:51.301Z,9.20
2023-04-30T01:33:17.631Z,10.57
2023-04-30T01:35:44.053Z,13.00
2023-04-30T01:38:13.198Z,13.00
2023-04-30T01:40:39.481Z,10.90
2023-04-30T01:43:10.564Z,4.28
2023-04-30T01:45:36.918Z,9.85
2023-04-30T01:48:21.901Z,11.25
2023-04-30T01:50:52.060Z,8.77
2023-04-30T01:53:21.942Z,8.43
2023-04-30T01:55:58.794Z,12.10
2023-04-30T01:58:25.754Z,16.25
2023-04-30T02:00:52.258Z,11.20
2023-04-30T02:03:18.848Z,12.48
2023-04-30T02:05:45.392Z,12.25
2023-04-30T02:08:11.716Z,11.20
2023-04-30T02:10:38.071Z,11.13
2023-04-30T02:13:04.536Z,9.77
2023-04-30T02:15:31.022Z,7.53
2023-04-30T02:17:57.387Z,13.00
2023-04-30T02:20:23.793Z,9.75
2023-04-30T02:22:50.781Z,12.43
2023-04-30T02:25:17.215Z,6.50
2023-04-30T02:27:43.600Z,10.77
2023-04-30T02:30:10.193Z,10.07
2023-04-30T02:32:36.610Z,12.13
2023-04-30T02:35:03.085Z,5.05
2023-04-30T02:37:29.489Z,9.55
2023-04-30T02:39:56.102Z,9.48
2023-04-30T02:42:22.521Z,6.80
2023-04-30T02:44:48.910Z,14.18
2023-04-30T02:47:15.307Z,13.05
2023-04-30T02:49:41.695Z,11.23
2023-04-30T02:52:09.571Z,11.40
2023-04-30T02:54:36.506Z,7.90
2023-04-30T02:57:03.264Z,8.63
2023-04-30T02:59:29.678Z,10.25
2023-04-30T03:01:56.111Z,9.93
2023-04-30T03:04:22.476Z,8.27
2023-04-30T03:06:48.842Z,10.98
2023-04-30T03:09:15.304Z,6.93
2023-04-30T03:11:41.722Z,9.32
2023-04-30T03:14:08.107Z,6.43
2023-04-30T03:16:34.552Z,11.52
2023-04-30T03:19:00.897Z,6.50
2023-04-30T03:21:27.264Z,11.95
2023-04-30T03:23:53.638Z,10.27
2023-04-30T03:26:20.981Z,10.02
2023-04-30T03:28:47.512Z,8.02
2023-04-30T03:31:13.861Z,5.40
2023-04-30T03:33:40.381Z,2.63
2023-04-30T03:36:06.775Z,5.70
2023-04-30T03:38:33.101Z,11.15
2023-04-30T03:40:59.497Z,8.27
2023-04-30T03:43:25.830Z,6.85
2023-04-30T03:45:52.324Z,6.40
2023-04-30T03:48:19.359Z,3.40
2023-04-30T03:50:46.410Z,2.42
2023-04-30T03:53:12.748Z,7.03
2023-04-30T03:55:39.196Z,7.40
2023-04-30T03:58:05.576Z,4.32
2023-04-30T04:00:31.954Z,11.48
2023-04-30T04:02:59.472Z,4.13
2023-04-30T04:05:26.550Z,10.88
2023-04-30T04:07:52.897Z,5.25
2023-04-30T04:10:19.242Z,3.45
2023-04-30T04:12:46.287Z,3.55
2023-04-30T04:15:13.415Z,7.47
2023-04-30T04:17:40.158Z,6.50
2023-04-30T04:20:07.383Z,3.30
2023-04-30T04:22:33.826Z,7.82
2023-04-30T04:25:00.186Z,2.30
2023-04-30T04:27:26.536Z,7.35
2023-04-30T04:29:53.128Z,8.73
2023-04-30T04:32:19.586Z,8.90
2023-04-30T04:34:46.067Z,8.10
2023-04-30T04:37:12.373Z,7.13
2023-04-30T04:39:38.735Z,5.28
2023-04-30T04:42:05.210Z,6.15
2023-04-30T04:44:32.354Z,2.80
2023-04-30T04:46:58.798Z,3.60
2023-04-30T04:49:25.175Z,5.88
2023-04-30T04:51:51.489Z,4.97
2023-04-30T04:54:17.809Z,8.70
2023-04-30T04:56:44.242Z,7.82
2023-04-30T04:59:10.687Z,9.70
2023-04-30T05:01:37.087Z,5.55
2023-04-30T05:04:03.513Z,6.22
2023-04-30T05:06:29.935Z,2.45
2023-04-30T05:08:56.516Z,7.82
2023-04-30T05:11:22.981Z,8.15
2023-04-30T05:13:49.332Z,9.40
2023-04-30T05:16:16.440Z,4.40
2023-04-30T05:18:42.841Z,8.75
2023-04-30T05:21:09.222Z,6.47
2023-04-30T05:23:35.596Z,7.85
2023-04-30T05:26:02.405Z,7.93
2023-04-30T05:28:28.907Z,9.25
2023-04-30T05:30:55.464Z,5.22
2023-04-30T05:33:21.771Z,8.07
2023-04-30T05:35:48.144Z,4.63
2023-04-30T05:38:14.510Z,9.75
2023-04-30T05:40:41.239Z,4.03
2023-04-30T05:43:07.638Z,10.30
2023-04-30T05:45:34.018Z,8.38
2023-04-30T05:48:01.961Z,3.78
2023-04-30T05:50:28.441Z,4.97
2023-04-30T05:52:54.760Z,4.57
2023-04-30T05:55:21.105Z,6.60
2023-04-30T05:57:47.505Z,7.07
2023-04-30T06:00:14.198Z,8.10
2023-04-30T06:02:41.216Z,3.97
2023-04-30T06:05:07.924Z,7.03
2023-04-30T06:07:34.343Z,5.75
2023-04-30T06:10:00.783Z,5.95
2023-04-30T06:12:27.302Z,2.83
2023-04-30T06:14:53.688Z,7.93
2023-04-30T06:17:20.133Z,4.63
2023-04-30T06:19:46.531Z,7.72
2023-04-30T06:22:12.859Z,5.13
2023-04-30T06:24:39.263Z,6.22
2023-04-30T06:27:05.654Z,5.53
2023-04-30T06:29:32.099Z,3.03
2023-04-30T06:31:58.540Z,6.13
2023-04-30T06:34:24.848Z,4.03
2023-04-30T06:36:51.176Z,4.78
2023-04-30T06:39:17.589Z,8.35
2023-04-30T06:41:44.032Z,9.13
2023-04-30T06:44:10.414Z,4.88
2023-04-30T06:46:36.951Z,4.97
2023-04-30T06:49:03.873Z,5.53
2023-04-30T06:51:31.110Z,4.70
2023-04-30T06:53:57.476Z,7.25
2023-04-30T06:56:25.058Z,5.07
2023-04-30T06:58:51.393Z,5.70
2023-04-30T07:01:17.904Z,5.65
2023-04-30T07:03:44.522Z,6.10
2023-04-30T07:06:11.037Z,4.80
2023-04-30T07:08:37.579Z,4.60
2023-04-30T07:11:04.003Z,9.43
2023-04-30T07:13:30.400Z,8.85
2023-04-30T07:15:56.870Z,4.35
2023-04-30T07:18:23.275Z,9.65
2023-04-30T07:20:49.854Z,6.45
2023-04-30T07:23:16.296Z,6.20
2023-04-30T07:25:42.748Z,10.68
2023-04-30T07:28:09.170Z,6.20
2023-04-30T07:30:35.727Z,5.72
2023-04-30T07:33:02.212Z,3.75
2023-04-30T07:35:28.637Z,7.63
2023-04-30T07:37:55.575Z,6.10
2023-04-30T07:40:34.827Z,4.80
2023-04-30T07:43:01.549Z,6.25
2023-04-30T07:45:28.329Z,5.85
2023-04-30T07:47:54.803Z,5.93
2023-04-30T07:50:21.297Z,6.88
2023-04-30T07:52:48.980Z,11.20
2023-04-30T07:55:15.368Z,6.30
2023-04-30T07:57:41.855Z,6.15
2023-04-30T08:00:08.496Z,5.95
2023-04-30T08:02:34.988Z,5.80
2023-04-30T08:05:01.485Z,6.30
2023-04-30T08:07:27.850Z,3.58
2023-04-30T08:09:54.329Z,4.50
2023-04-30T08:12:21.057Z,8.65
2023-04-30T08:14:47.708Z,5.40
2023-04-30T08:17:14.037Z,7.72
2023-04-30T08:19:40.437Z,7.38
2023-04-30T08:22:06.778Z,6.20
2023-04-30T08:24:33.100Z,8.02
2023-04-30T08:27:00.993Z,7.15
2023-04-30T08:29:27.771Z,6.05
2023-04-30T08:31:54.385Z,7.30
2023-04-30T08:34:20.812Z,11.75
2023-04-30T08:36:47.234Z,7.90
2023-04-30T08:39:13.616Z,6.10
2023-04-30T08:41:40.213Z,7.75
2023-04-30T08:44:08.323Z,7.90
2023-04-30T08:46:36.053Z,5.70
2023-04-30T08:49:02.812Z,5.88
2023-04-30T08:51:32.044Z,7.28
2023-04-30T08:53:58.547Z,5.65
2023-04-30T08:56:25.512Z,5.80
2023-04-30T08:58:52.057Z,6.55
2023-04-30T09:01:18.541Z,6.50
2023-04-30T09:03:44.969Z,6.63
2023-04-30T09:08:46.787Z,5.82
2023-04-30T09:11:25.403Z,4.20
2023-04-30T09:13:55.567Z,5.47
2023-04-30T09:16:22.092Z,8.30
2023-04-30T09:18:48.735Z,4.85
2023-04-30T09:21:15.256Z,5.47
2023-04-30T09:23:55.342Z,4.35
2023-04-30T09:26:26.126Z,4.43
2023-04-30T09:28:59.300Z,6.30
2023-04-30T09:31:26.222Z,4.55
2023-04-30T09:33:53.745Z,3.45
2023-04-30T09:36:20.699Z,3.80
2023-04-30T09:38:47.099Z,3.42
2023-04-30T09:41:27.266Z,5.35
2023-04-30T09:43:54.572Z,5.57
2023-04-30T09:46:21.778Z,3.72
2023-04-30T09:48:57.231Z,6.38
2023-04-30T09:51:23.672Z,3.67
2023-04-30T09:53:51.005Z,5.90
2023-04-30T09:56:20.248Z,3.60
2023-04-30T09:58:49.355Z,2.40
2023-04-30T10:01:16.326Z,2.47
2023-04-30T10:03:42.991Z,3.92
2023-04-30T10:06:09.985Z,5.22
2023-04-30T10:08:40.065Z,5.32
2023-04-30T10:11:07.350Z,4.50
2023-04-30T10:13:38.479Z,3.22
2023-04-30T10:16:07.807Z,2.90
2023-04-30T10:18:37.154Z,3.42
2023-04-30T10:21:05.711Z,4.60
2023-04-30T10:23:32.486Z,2.95
2023-04-30T10:25:58.939Z,2.67
2023-04-30T10:28:25.282Z,3.33
2023-04-30T10:30:52.029Z,2.97
2023-04-30T10:33:36.999Z,1.38
2023-04-30T10:36:05.665Z,1.90
2023-04-30T10:38:32.728Z,2.92
2023-04-30T10:40:59.896Z,4.25
2023-04-30T10:43:26.504Z,2.10
2023-04-30T10:45:53.226Z,2.90
2023-04-30T10:48:25.479Z,3.15
2023-04-30T10:50:53.043Z,1.05
2023-04-30T10:53:20.690Z,4.13
2023-04-30T10:55:53.064Z,2.50
2023-04-30T10:58:46.023Z,3.60
2023-04-30T11:01:13.643Z,2.40
2023-04-30T11:03:41.122Z,1.38
2023-04-30T11:06:20.059Z,3.85
2023-04-30T11:08:46.743Z,1.15
2023-04-30T11:11:18.080Z,2.55
2023-04-30T11:13:45.093Z,2.72
2023-04-30T11:16:11.893Z,2.30
2023-04-30T11:18:42.512Z,2.55
2023-04-30T11:21:09.214Z,2.00
2023-04-30T11:23:40.417Z,1.88
2023-04-30T11:26:08.845Z,1.95
2023-04-30T11:28:36.696Z,2.28
2023-04-30T11:31:03.985Z,2.85
2023-04-30T11:33:31.967Z,1.67
2023-04-30T11:35:59.260Z,2.05
2023-04-30T11:38:29.562Z,1.60
2023-04-30T11:40:59.109Z,1.63
2023-04-30T11:43:29.416Z,3.58
2023-04-30T11:46:05.188Z,3.55
2023-04-30T11:55:52.609Z,3.05
2023-04-30T11:58:19.256Z,3.10
2023-04-30T12:00:45.601Z,3.10
2023-04-30T12:03:14.497Z,4.50
2023-04-30T12:05:41.265Z,1.63
2023-04-30T12:08:09.108Z,1.20
2023-04-30T12:10:36.100Z,2.22
2023-04-30T12:13:02.729Z,3.45
2023-04-30T12:15:29.375Z,3.15
2023-04-30T12:17:59.618Z,2.20
2023-04-30T12:20:27.359Z,3.17
2023-04-30T12:22:54.254Z,2.30
2023-04-30T12:25:21.922Z,1.88
2023-04-30T12:27:49.358Z,2.83
2023-04-30T12:30:19.499Z,3.20
2023-04-30T12:32:48.711Z,1.80
2023-04-30T12:35:15.987Z,1.92
2023-04-30T12:37:46.088Z,1.55
2023-04-30T12:40:13.169Z,1.65
2023-04-30T12:42:39.741Z,3.67
2023-04-30T12:45:06.745Z,1.30
2023-04-30T12:47:33.321Z,2.08
2023-04-30T12:49:59.676Z,2.45
2023-04-30T12:52:26.886Z,2.00
2023-04-30T12:54:54.593Z,1.05
2023-04-30T12:57:21.219Z,1.67
2023-04-30T12:59:53.714Z,1.67
2023-04-30T13:02:23.797Z,1.30
2023-04-30T13:04:51.082Z,2.10
2023-04-30T13:07:17.496Z,1.30
2023-04-30T13:09:43.841Z,2.72
2023-04-30T13:12:10.412Z,1.90
2023-04-30T13:14:36.804Z,2.08
2023-04-30T13:17:05.813Z,2.95
2023-04-30T13:19:32.493Z,1.80
2023-04-30T13:22:04.810Z,1.67
2023-04-30T13:24:31.355Z,3.78
2023-04-30T13:26:59.281Z,2.28
2023-04-30T13:29:25.736Z,2.45
2023-04-30T13:31:52.287Z,2.28
2023-04-30T13:34:18.728Z,2.08
2023-04-30T13:36:46.805Z,2.80
2023-04-30T13:39:13.273Z,2.38
2023-04-30T13:41:39.575Z,3.40
2023-04-30T13:44:06.034Z,2.45
2023-04-30T13:46:32.417Z,3.92
2023-04-30T13:48:58.796Z,2.88
2023-04-30T13:51:25.299Z,1.45
2023-04-30T13:53:51.599Z,1.95
2023-04-30T13:56:17.995Z,3.35
2023-04-30T13:58:44.344Z,2.70
2023-04-30T14:01:10.751Z,2.30
2023-04-30T14:03:37.521Z,1.70
2023-04-30T14:06:04.225Z,2.22
2023-04-30T14:08:31.880Z,2.13
2023-04-30T14:10:58.676Z,2.92
2023-04-30T14:13:25.748Z,1.75
2023-04-30T14:15:52.169Z,1.05
2023-04-30T14:18:22.677Z,0.90
2023-04-30T14:20:49.259Z,1.75
2023-04-30T14:23:15.932Z,1.25
2023-04-30T14:25:42.251Z,1.98
2023-04-30T14:28:08.781Z,1.50
2023-04-30T14:30:35.080Z,2.72
2023-04-30T14:33:01.432Z,1.13
2023-04-30T14:35:28.154Z,1.10
2023-04-30T14:37:54.449Z,1.05
2023-04-30T14:40:20.866Z,3.13
2023-04-30T14:42:47.350Z,2.67
2023-04-30T14:45:13.979Z,2.75
2023-04-30T14:47:40.662Z,2.88
2023-04-30T14:50:07.156Z,1.85
2023-04-30T14:52:33.535Z,3.28
2023-04-30T14:54:59.944Z,6.72
2023-04-30T14:57:27.343Z,2.35
2023-04-30T14:59:57.542Z,1.95
2023-04-30T15:02:24.229Z,3.13
2023-04-30T15:04:50.631Z,3.03
2023-04-30T15:07:17.114Z,3.30
2023-04-30T15:09:44.741Z,2.53
2023-04-30T15:12:11.064Z,4.43
2023-04-30T15:14:37.402Z,2.97
2023-04-30T15:17:03.997Z,3.95
2023-04-30T15:19:30.592Z,2.50
2023-04-30T15:21:56.922Z,1.77
2023-04-30T15:24:23.313Z,5.35
2023-04-30T15:26:52.903Z,3.17
2023-04-30T15:29:19.209Z,3.88
2023-04-30T15:31:45.649Z,8.73
2023-04-30T15:34:12.076Z,2.63
2023-04-30T15:36:38.926Z,2.15
2023-04-30T15:39:05.292Z,1.98
2023-04-30T15:41:31.648Z,2.67
2023-04-30T15:43:58.303Z,1.50
2023-04-30T15:46:24.706Z,1.70
2023-04-30T15:48:51.127Z,1.67
2023-04-30T15:51:17.450Z,0.77
2023-04-30T15:53:43.801Z,1.80
2023-04-30T15:56:10.931Z,2.78
2023-04-30T15:58:37.333Z,1.58
2023-04-30T16:01:03.779Z,2.70
2023-04-30T16:03:31.069Z,2.25
2023-04-30T16:05:57.606Z,1.67
2023-04-30T16:08:23.954Z,2.00
2023-04-30T16:10:50.334Z,1.08
2023-04-30T16:13:16.735Z,1.38
2023-04-30T16:15:43.046Z,2.63
2023-04-30T16:18:09.882Z,2.65
2023-04-30T16:20:36.779Z,2.90
2023-04-30T16:23:04.812Z,1.58
2023-04-30T16:25:31.361Z,2.22
2023-04-30T16:27:58.011Z,1.67
2023-04-30T16:30:24.458Z,3.80
2023-04-30T16:32:50.814Z,1.60
2023-04-30T16:35:17.222Z,4.78
2023-04-30T16:37:43.559Z,2.28
2023-04-30T16:40:10.121Z,3.45
2023-04-30T16:42:36.537Z,2.03
2023-04-30T16:45:03.179Z,2.10
2023-04-30T16:47:30.034Z,2.67
2023-04-30T16:49:58.441Z,2.42
2023-04-30T16:52:25.103Z,2.20
2023-04-30T16:54:51.426Z,2.53
2023-04-30T16:57:17.827Z,1.13
2023-04-30T16:59:44.140Z,2.80
2023-04-30T17:02:10.661Z,2.50
2023-04-30T17:04:37.507Z,3.30
2023-04-30T17:07:04.066Z,1.98
2023-04-30T17:09:30.482Z,8.15
2023-04-30T17:11:56.982Z,1.60
2023-04-30T17:14:23.462Z,1.02
2023-04-30T17:16:50.173Z,1.95
2023-04-30T17:19:17.868Z,3.08
2023-04-30T17:21:44.412Z,5.32
2023-04-30T17:24:11.360Z,1.65
2023-04-30T17:26:37.742Z,3.25
2023-04-30T17:29:04.618Z,1.70
2023-04-30T17:31:31.177Z,4.00
2023-04-30T17:33:57.644Z,2.25
2023-04-30T17:36:24.909Z,2.28
2023-04-30T17:38:51.273Z,2.88
2023-04-30T17:41:18.669Z,2.88
2023-04-30T17:43:45.161Z,0.90
2023-04-30T17:46:11.828Z,3.50
2023-04-30T17:48:38.247Z,1.90
2023-04-30T17:51:04.940Z,1.23
2023-04-30T17:53:31.407Z,1.00
2023-04-30T17:55:59.642Z,0.90
2023-04-30T17:58:26.797Z,1.38
2023-04-30T18:00:54.365Z,2.67
2023-04-30T18:03:20.987Z,0.82
2023-04-30T18:05:47.563Z,1.95
2023-04-30T18:08:13.984Z,3.88
2023-04-30T18:10:40.462Z,0.90
2023-04-30T18:13:07.010Z,2.15
2023-04-30T18:15:33.519Z,2.92
2023-04-30T18:18:00.361Z,1.27
2023-04-30T18:20:26.744Z,1.55
2023-04-30T18:22:53.229Z,1.92
2023-04-30T18:25:19.870Z,0.70
2023-04-30T18:27:46.224Z,1.08
2023-04-30T18:30:12.917Z,1.67
2023-04-30T18:32:39.713Z,0.75
2023-04-30T18:35:06.451Z,1.20
2023-04-30T18:37:33.020Z,1.58
2023-04-30T18:40:00.445Z,1.15
2023-04-30T18:42:26.996Z,1.35
2023-04-30T18:44:53.370Z,1.20
2023-04-30T18:47:19.839Z,2.60
2023-04-30T18:49:46.268Z,1.98
2023-04-30T18:52:12.681Z,2.13
2023-04-30T18:54:40.086Z,1.00
2023-04-30T18:57:06.801Z,5.45
2023-04-30T18:59:33.300Z,4.47
2023-04-30T19:02:00.179Z,0.70
2023-04-30T19:04:27.151Z,1.88
2023-04-30T19:06:55.637Z,2.67
2023-04-30T19:09:22.234Z,1.63
2023-04-30T19:11:49.046Z,3.03
2023-04-30T19:14:15.409Z,1.77
2023-04-30T19:16:41.812Z,4.68
2023-04-30T19:19:08.182Z,2.50
2023-04-30T19:21:36.261Z,2.45
2023-04-30T19:24:03.511Z,4.47
2023-04-30T19:26:30.180Z,4.20
2023-04-30T19:28:56.598Z,3.65
2023-04-30T19:31:23.225Z,4.20
2023-04-30T19:33:49.629Z,4.28
2023-04-30T19:36:17.286Z,3.35
2023-04-30T19:38:43.664Z,3.08
2023-04-30T19:41:10.095Z,8.15
2023-04-30T19:43:37.142Z,1.95
2023-04-30T19:46:03.738Z,4.72
2023-04-30T19:48:31.338Z,3.85
2023-04-30T19:50:58.147Z,3.97
2023-04-30T19:53:27.716Z,6.13
2023-04-30T19:55:54.099Z,5.82
2023-04-30T19:58:20.637Z,2.70
2023-04-30T20:00:47.288Z,7.68
2023-04-30T20:03:14.468Z,4.05
2023-04-30T20:05:40.862Z,2.67
2023-04-30T20:08:08.000Z,4.90
2023-04-30T20:10:36.144Z,5.80
2023-04-30T20:13:05.928Z,4.85
2023-04-30T20:15:32.839Z,5.20
2023-04-30T20:17:59.905Z,3.83
2023-04-30T20:20:26.600Z,5.80
2023-04-30T20:22:54.028Z,9.85
2023-04-30T20:25:21.477Z,4.10
2023-04-30T20:27:48.055Z,3.38
2023-04-30T20:30:14.598Z,5.72
2023-04-30T20:32:41.446Z,3.03
2023-04-30T20:35:08.390Z,3.83
2023-04-30T20:37:35.419Z,4.88
2023-04-30T20:40:02.280Z,3.17
2023-04-30T20:42:29.010Z,5.60
2023-04-30T20:44:55.710Z,3.83
2023-04-30T20:47:22.340Z,5.20
2023-04-30T20:49:48.676Z,2.92
2023-04-30T20:52:15.391Z,6.97
2023-04-30T20:54:41.796Z,5.57
2023-04-30T20:57:08.983Z,3.88
2023-04-30T20:59:35.954Z,6.35
2023-04-30T21:02:03.612Z,5.10
2023-04-30T21:04:30.363Z,5.00
2023-04-30T21:06:57.113Z,5.63
2023-04-30T21:09:23.590Z,6.50
2023-04-30T21:11:49.971Z,3.63
2023-04-30T21:14:16.357Z,6.45
2023-04-30T21:16:43.703Z,5.93
2023-04-30T21:19:11.181Z,7.38
2023-04-30T21:21:37.666Z,5.90
2023-04-30T21:24:05.191Z,5.57
2023-04-30T21:26:31.779Z,4.22
2023-04-30T21:28:58.167Z,6.50
2023-04-30T21:31:24.886Z,7.13
2023-04-30T21:33:51.636Z,6.78
2023-04-30T21:36:18.252Z,7.25
2023-04-30T21:38:45.018Z,3.35
2023-04-30T21:41:15.393Z,4.13
2023-04-30T21:43:41.843Z,6.53
2023-04-30T21:46:08.265Z,9.55
2023-04-30T21:48:34.961Z,5.60
2023-04-30T21:51:01.345Z,4.15
2023-04-30T21:53:27.686Z,5.35
2023-04-30T21:55:54.332Z,3.63
2023-04-30T21:58:20.656Z,6.85
2023-04-30T22:00:47.181Z,3.35
2023-04-30T22:03:15.505Z,10.00
2023-04-30T22:05:43.372Z,3.83
2023-04-30T22:08:09.781Z,4.82
2023-04-30T22:10:37.256Z,6.22
2023-04-30T22:13:03.652Z,14.88
2023-04-30T22:15:40.772Z,7.18
2023-04-30T22:18:13.800Z,5.45
2023-04-30T22:20:40.207Z,6.50
2023-04-30T22:23:06.639Z,4.57
2023-04-30T22:25:33.325Z,4.35
2023-04-30T22:27:59.785Z,5.68
2023-04-30T22:30:26.291Z,6.40
2023-04-30T22:32:56.535Z,6.60
2023-04-30T22:35:23.189Z,5.25
2023-04-30T22:37:49.719Z,4.68
2023-04-30T22:40:16.582Z,4.65
2023-04-30T22:42:43.501Z,6.18
2023-04-30T22:45:10.246Z,3.42
2023-04-30T22:47:36.679Z,5.72
2023-04-30T22:50:03.057Z,4.40
2023-04-30T22:52:29.625Z,4.45
2023-04-30T22:54:56.214Z,4.93
2023-04-30T22:57:22.819Z,5.68
2023-04-30T22:59:49.287Z,6.40
2023-04-30T23:02:16.106Z,8.85
2023-04-30T23:04:42.448Z,3.42
2023-04-30T23:07:09.040Z,2.42
2023-04-30T23:09:35.550Z,4.57
2023-04-30T23:12:02.446Z,7.00
2023-04-30T23:14:29.727Z,6.60
2023-04-30T23:16:56.364Z,6.57
2023-04-30T23:19:23.012Z,5.22
2023-04-30T23:21:49.458Z,4.05
2023-04-30T23:24:15.782Z,5.50
2023-04-30T23:26:42.138Z,6.25
2023-04-30T23:29:08.512Z,4.28
2023-04-30T23:31:34.962Z,8.88
2023-04-30T23:34:01.346Z,5.07
2023-04-30T23:36:27.761Z,4.95
2023-04-30T23:38:54.070Z,6.05
2023-04-30T23:41:20.900Z,8.30
2023-04-30T23:43:47.352Z,4.03
2023-04-30T23:46:15.850Z,5.78
2023-04-30T23:48:42.354Z,6.72
2023-04-30T23:51:08.972Z,3.33
2023-04-30T23:53:35.501Z,5.85
2023-04-30T23:56:02.018Z,8.15
2023-04-30T23:58:30.371Z,4.38
